createdAt,value
2023-01-05T00:01:51.315Z,17.83
2023-01-05T00:04:18.541Z,18.43
2023-01-05T00:06:45.588Z,18.70
2023-01-05T00:09:15.108Z,15.10
2023-01-05T00:12:01.043Z,12.53
2023-01-05T00:14:50.723Z,20.23
2023-01-05T00:17:38.918Z,11.87
2023-01-05T00:20:32.195Z,18.13
2023-01-05T00:22:59.054Z,11.20
2023-01-05T00:25:31.416Z,12.47
2023-01-05T00:27:58.985Z,27.43
2023-01-05T00:30:28.810Z,21.63
2023-01-05T00:32:55.560Z,24.10
2023-01-05T00:35:23.192Z,16.13
2023-01-05T00:37:50.745Z,19.53
2023-01-05T00:40:21.977Z,11.60
2023-01-05T00:42:49.032Z,18.10
2023-01-05T00:45:17.945Z,13.07
2023-01-05T00:47:45.130Z,16.40
2023-01-05T00:50:16.009Z,16.73
2023-01-05T00:52:43.771Z,15.93
2023-01-05T00:55:10.556Z,21.40
2023-01-05T00:57:37.400Z,14.10
2023-01-05T01:00:06.346Z,19.43
2023-01-05T01:02:33.224Z,18.87
2023-01-05T01:05:00.124Z,19.90
2023-01-05T01:07:27.022Z,15.70
2023-01-05T01:09:53.861Z,16.50
2023-01-05T01:12:21.134Z,12.20
2023-01-05T01:14:49.257Z,19.93
2023-01-05T01:17:19.206Z,19.63
2023-01-05T01:19:46.836Z,18.10
2023-01-05T01:22:14.661Z,20.37
2023-01-05T01:24:45.277Z,18.17
2023-01-05T01:27:12.440Z,15.93
2023-01-05T01:29:39.153Z,14.90
2023-01-05T01:32:05.872Z,14.63
2023-01-05T01:34:32.575Z,15.27
2023-01-05T01:37:00.341Z,16.93
2023-01-05T01:39:27.273Z,18.23
2023-01-05T01:41:53.914Z,12.93
2023-01-05T01:44:51.478Z,15.47
2023-01-05T01:47:28.162Z,13.70
2023-01-05T01:49:57.407Z,12.27
2023-01-05T01:52:26.986Z,13.80
2023-01-05T01:54:54.877Z,24.63
2023-01-05T01:57:23.073Z,17.67
2023-01-05T01:59:50.551Z,13.20
2023-01-05T02:02:17.664Z,16.37
2023-01-05T02:04:45.776Z,15.70
2023-01-05T02:07:15.455Z,17.97
2023-01-05T02:09:43.172Z,14.73
2023-01-05T02:12:27.430Z,12.53
2023-01-05T02:15:10.435Z,11.03
2023-01-05T02:18:05.438Z,21.07
2023-01-05T02:20:57.105Z,13.53
2023-01-05T02:23:49.064Z,13.80
2023-01-05T02:26:54.498Z,18.37
2023-01-05T02:29:31.703Z,14.80
2023-01-05T02:32:11.685Z,16.17
2023-01-05T02:34:41.198Z,13.20
2023-01-05T02:37:11.571Z,14.47
2023-01-05T02:39:54.468Z,15.17
2023-01-05T02:42:26.758Z,15.90
2023-01-05T02:44:53.471Z,13.17
2023-01-05T02:47:27.649Z,11.63
2023-01-05T02:50:10.042Z,16.67
2023-01-05T02:53:10.415Z,14.33
2023-01-05T02:55:55.665Z,16.67
2023-01-05T02:58:48.721Z,8.23
2023-01-05T03:01:31.339Z,16.00
2023-01-05T03:04:04.943Z,19.20
2023-01-05T03:06:46.965Z,15.20
2023-01-05T03:09:17.599Z,19.90
2023-01-05T03:12:09.281Z,19.60
2023-01-05T03:14:51.178Z,25.27
2023-01-05T03:17:25.689Z,15.70
2023-01-05T03:19:54.678Z,18.60
2023-01-05T03:22:44.628Z,15.13
2023-01-05T03:25:32.464Z,16.33
2023-01-05T03:28:19.768Z,10.43
2023-01-05T03:31:29.996Z,21.70
2023-01-05T03:34:42.762Z,16.83
2023-01-05T03:37:24.221Z,16.77
2023-01-05T03:39:50.907Z,12.47
2023-01-05T03:42:18.349Z,15.20
2023-01-05T03:44:48.719Z,10.60
2023-01-05T03:47:15.606Z,15.30
2023-01-05T03:49:42.337Z,23.17
2023-01-05T03:52:09.044Z,17.27
2023-01-05T03:54:35.791Z,12.60
2023-01-05T03:57:02.461Z,12.47
2023-01-05T03:59:29.239Z,12.23
2023-01-05T04:01:56.056Z,14.93
2023-01-05T04:04:22.863Z,12.97
2023-01-05T04:06:49.653Z,19.13
2023-01-05T04:09:16.309Z,20.10
2023-01-05T04:11:42.940Z,12.70
2023-01-05T04:14:09.667Z,18.20
2023-01-05T04:16:36.485Z,14.77
2023-01-05T04:19:03.668Z,16.50
2023-01-05T04:21:30.397Z,14.73
2023-01-05T04:23:57.091Z,11.53
2023-01-05T04:26:23.742Z,18.50
2023-01-05T04:28:50.396Z,18.20
2023-01-05T04:31:17.127Z,19.50
2023-01-05T04:33:45.452Z,16.77
2023-01-05T04:36:12.209Z,13.93
2023-01-05T04:38:38.899Z,19.37
2023-01-05T04:41:05.891Z,18.63
2023-01-05T04:43:32.537Z,17.80
2023-01-05T04:45:59.392Z,12.13
2023-01-05T04:48:26.167Z,12.97
2023-01-05T04:50:54.824Z,21.37
2023-01-05T04:53:23.364Z,16.47
2023-01-05T04:55:51.450Z,15.00
2023-01-05T04:58:20.428Z,8.37
2023-01-05T05:00:48.363Z,16.97
2023-01-05T05:03:15.142Z,18.03
2023-01-05T05:05:41.896Z,18.93
2023-01-05T05:08:08.539Z,16.00
2023-01-05T05:10:35.340Z,25.07
2023-01-05T05:13:02.046Z,17.60
2023-01-05T05:15:28.912Z,16.30
2023-01-05T05:17:55.822Z,13.13
2023-01-05T05:20:22.678Z,19.83
2023-01-05T05:22:49.353Z,19.90
2023-01-05T05:25:16.273Z,16.80
2023-01-05T05:27:43.035Z,17.63
2023-01-05T05:30:10.272Z,17.20
2023-01-05T05:32:42.366Z,13.40
2023-01-05T05:35:11.126Z,21.80
2023-01-05T05:37:37.883Z,14.57
2023-01-05T05:40:05.155Z,19.00
2023-01-05T05:42:31.981Z,15.37
2023-01-05T05:44:58.736Z,10.70
2023-01-05T05:47:25.426Z,15.93
2023-01-05T05:49:52.256Z,15.60
2023-01-05T05:52:18.946Z,21.33
2023-01-05T05:54:45.745Z,13.67
2023-01-05T05:57:12.523Z,14.40
2023-01-05T05:59:39.218Z,19.53
2023-01-05T06:02:06.150Z,17.13
2023-01-05T06:04:33.010Z,14.43
2023-01-05T06:06:59.688Z,18.10
2023-01-05T06:09:26.786Z,14.93
2023-01-05T06:11:53.508Z,17.37
2023-01-05T06:14:20.163Z,23.83
2023-01-05T06:16:47.000Z,23.50
2023-01-05T06:19:13.805Z,17.07
2023-01-05T06:21:40.619Z,26.17
2023-01-05T06:24:07.597Z,18.97
2023-01-05T06:26:34.283Z,22.00
2023-01-05T06:29:01.089Z,18.10
2023-01-05T06:31:27.915Z,28.33
2023-01-05T06:33:54.861Z,24.57
2023-01-05T06:36:21.645Z,19.90
2023-01-05T06:38:48.457Z,19.93
2023-01-05T06:41:15.251Z,26.17
2023-01-05T06:43:43.037Z,15.73
2023-01-05T06:46:12.941Z,17.63
2023-01-05T06:48:39.921Z,12.47
2023-01-05T06:51:06.830Z,15.93
2023-01-05T06:53:33.764Z,14.23
2023-01-05T06:56:00.661Z,9.73
2023-01-05T06:58:27.489Z,12.17
2023-01-05T07:00:54.910Z,3.97
2023-01-05T07:03:23.749Z,6.27
2023-01-05T07:05:52.026Z,9.50
2023-01-05T07:08:18.745Z,5.63
2023-01-05T07:10:45.485Z,6.37
2023-01-05T07:13:12.288Z,4.37
2023-01-05T07:15:39.005Z,6.53
2023-01-05T07:18:05.794Z,1.83
2023-01-05T07:20:32.510Z,4.67
2023-01-05T07:22:59.282Z,3.63
2023-01-05T07:25:31.343Z,4.03
2023-01-05T07:27:58.523Z,3.90
2023-01-05T07:30:25.282Z,3.57
2023-01-05T07:32:52.040Z,1.20
2023-01-05T07:35:18.865Z,3.47
2023-01-05T07:37:45.487Z,1.70
2023-01-05T07:40:12.627Z,5.30
2023-01-05T07:42:39.307Z,3.17
2023-01-05T07:45:06.826Z,1.77
2023-01-05T07:47:33.564Z,2.07
2023-01-05T07:50:00.241Z,3.27
2023-01-05T07:52:28.873Z,4.53
2023-01-05T07:54:55.525Z,1.40
2023-01-05T07:57:22.299Z,2.30
2023-01-05T07:59:48.941Z,4.00
2023-01-05T08:02:15.687Z,2.40
2023-01-05T08:04:42.635Z,1.03
2023-01-05T08:07:11.305Z,2.93
2023-01-05T08:09:57.330Z,3.77
2023-01-05T08:12:24.080Z,2.90
2023-01-05T08:14:51.874Z,1.70
2023-01-05T08:17:18.506Z,2.63
2023-01-05T08:19:45.159Z,3.13
2023-01-05T08:22:11.950Z,1.43
2023-01-05T08:24:38.652Z,6.30
2023-01-05T08:27:05.424Z,1.37
2023-01-05T08:29:32.133Z,3.77
2023-01-05T08:31:58.858Z,2.20
2023-01-05T08:34:30.051Z,1.70
2023-01-05T08:36:59.683Z,3.03
2023-01-05T08:39:26.325Z,3.20
2023-01-05T08:41:56.241Z,4.73
2023-01-05T08:44:27.380Z,3.20
2023-01-05T08:46:54.046Z,5.57
2023-01-05T08:49:20.819Z,7.37
2023-01-05T08:51:47.507Z,6.37
2023-01-05T08:54:14.194Z,4.43
2023-01-05T08:56:41.100Z,4.17
2023-01-05T08:59:08.704Z,2.43
2023-01-05T09:01:36.873Z,3.57
2023-01-05T09:04:03.815Z,10.50
2023-01-05T09:06:30.636Z,3.33
2023-01-05T09:08:57.377Z,2.33
2023-01-05T09:11:26.162Z,4.90
2023-01-05T09:14:00.543Z,3.60
2023-01-05T09:19:17.122Z,5.43
2023-01-05T09:21:44.685Z,2.83
2023-01-05T09:24:13.021Z,3.33
2023-01-05T09:26:41.396Z,8.73
2023-01-05T09:29:09.090Z,6.37
2023-01-05T09:31:35.747Z,9.47
2023-01-05T09:34:02.464Z,7.97
2023-01-05T09:36:29.214Z,6.40
2023-01-05T09:38:59.262Z,6.63
2023-01-05T09:41:35.123Z,5.43
2023-01-05T09:44:11.917Z,11.20
2023-01-05T09:46:42.999Z,11.00
2023-01-05T09:49:19.038Z,7.17
2023-01-05T09:51:45.704Z,11.13
2023-01-05T09:54:19.361Z,10.87
2023-01-05T10:00:00.183Z,6.47
2023-01-05T10:02:47.063Z,2.73
2023-01-05T10:05:14.709Z,7.00
2023-01-05T10:07:50.088Z,10.13
2023-01-05T10:10:32.195Z,12.23
2023-01-05T10:13:05.462Z,6.50
2023-01-05T10:15:55.703Z,9.50
2023-01-05T10:18:26.497Z,7.63
2023-01-05T10:21:11.372Z,13.17
2023-01-05T10:23:59.203Z,6.33
2023-01-05T10:27:14.365Z,8.53
2023-01-05T10:29:47.429Z,6.80
2023-01-05T10:32:30.330Z,8.97
2023-01-05T10:35:58.911Z,4.97
2023-01-05T10:38:28.094Z,6.30
2023-01-05T10:40:54.696Z,8.73
2023-01-05T10:43:34.074Z,4.93
2023-01-05T10:46:31.096Z,6.03
2023-01-05T10:48:49.412Z,3.90
2023-01-05T10:51:16.108Z,5.00
2023-01-05T10:53:44.332Z,3.83
2023-01-05T10:56:23.088Z,4.73
2023-01-05T10:59:07.403Z,6.13
2023-01-05T11:01:36.672Z,1.23
2023-01-05T11:04:35.330Z,2.37
2023-01-05T11:07:05.495Z,5.60
2023-01-05T11:09:32.377Z,3.83
2023-01-05T11:12:03.544Z,6.73
2023-01-05T11:14:35.591Z,2.43
2023-01-05T11:17:06.229Z,6.00
2023-01-05T11:19:37.226Z,4.50
2023-01-05T11:22:03.922Z,6.80
2023-01-05T11:24:35.559Z,4.27
2023-01-05T11:27:23.932Z,5.50
2023-01-05T11:30:15.792Z,5.00
2023-01-05T11:32:43.842Z,7.27
2023-01-05T11:35:37.339Z,8.13
2023-01-05T11:38:04.365Z,6.07
2023-01-05T11:40:34.541Z,6.47
2023-01-05T11:43:10.626Z,2.57
2023-01-05T11:45:45.658Z,4.37
2023-01-05T11:48:20.737Z,6.03
2023-01-05T11:50:50.477Z,5.17
2023-01-05T11:53:40.011Z,6.60
2023-01-05T11:56:24.138Z,3.70
2023-01-05T11:58:55.861Z,8.30
2023-01-05T12:01:28.549Z,8.30
2023-01-05T12:04:05.184Z,5.43
2023-01-05T12:07:03.243Z,7.87
2023-01-05T12:09:36.359Z,8.27
2023-01-05T12:12:25.859Z,7.43
2023-01-05T12:15:37.444Z,6.83
2023-01-05T12:18:20.401Z,4.80
2023-01-05T12:21:15.281Z,5.27
2023-01-05T12:23:54.210Z,4.53
2023-01-05T12:26:29.410Z,3.80
2023-01-05T12:30:24.582Z,6.37
2023-01-05T12:35:08.503Z,3.47
2023-01-05T12:37:35.123Z,5.90
2023-01-05T12:40:31.145Z,3.10
2023-01-05T12:43:06.021Z,4.63
2023-01-05T12:46:03.064Z,4.57
2023-01-05T12:48:45.870Z,4.63
2023-01-05T12:51:35.821Z,5.03
2023-01-05T12:54:12.085Z,4.83
2023-01-05T12:56:50.408Z,5.23
2023-01-05T12:59:37.853Z,6.23
2023-01-05T13:02:07.758Z,9.57
2023-01-05T13:04:49.459Z,5.83
2023-01-05T13:07:25.259Z,3.90
2023-01-05T13:10:06.133Z,6.97
2023-01-05T13:12:34.384Z,3.97
2023-01-05T13:15:16.339Z,8.83
2023-01-05T13:17:47.480Z,4.20
2023-01-05T13:20:20.156Z,4.13
2023-01-05T13:22:49.402Z,6.27
2023-01-05T13:25:22.256Z,5.13
2023-01-05T13:27:48.988Z,2.43
2023-01-05T13:30:31.139Z,5.60
2023-01-05T13:32:57.821Z,4.47
2023-01-05T13:35:48.843Z,4.17
2023-01-05T13:38:27.498Z,1.50
2023-01-05T13:41:09.891Z,5.27
2023-01-05T13:43:54.644Z,1.97
2023-01-05T13:46:26.693Z,4.03
2023-01-05T13:49:31.055Z,4.80
2023-01-05T13:52:06.106Z,4.67
2023-01-05T13:55:01.359Z,2.93
2023-01-05T13:57:35.189Z,4.60
2023-01-05T14:00:10.390Z,2.83
2023-01-05T14:02:43.573Z,2.37
2023-01-05T14:05:32.841Z,7.10
2023-01-05T14:08:03.209Z,10.87
2023-01-05T14:10:36.189Z,18.53
2023-01-05T14:13:04.079Z,6.27
2023-01-05T14:15:41.866Z,7.50
2023-01-05T14:18:30.728Z,3.80
2023-01-05T14:21:09.564Z,8.17
2023-01-05T14:23:36.298Z,6.43
2023-01-05T14:26:06.470Z,8.33
2023-01-05T14:28:36.016Z,5.90
2023-01-05T14:31:14.939Z,7.57
2023-01-05T14:33:57.555Z,8.67
2023-01-05T14:36:42.688Z,11.83
2023-01-05T14:39:18.691Z,5.30
2023-01-05T14:41:56.208Z,7.57
2023-01-05T14:44:29.920Z,12.23
2023-01-05T14:46:57.741Z,8.40
2023-01-05T14:49:40.632Z,3.97
2023-01-05T14:52:16.704Z,6.30
2023-01-05T14:54:43.317Z,9.83
2023-01-05T14:57:25.322Z,5.43
2023-01-05T15:00:03.642Z,4.90
2023-01-05T15:02:34.818Z,2.37
2023-01-05T15:05:07.567Z,14.33
2023-01-05T15:08:18.252Z,7.37
2023-01-05T15:10:57.043Z,5.43
2023-01-05T15:13:38.940Z,9.37
2023-01-05T15:16:05.515Z,3.37
2023-01-05T15:18:38.186Z,7.87
2023-01-05T15:21:49.948Z,6.50
2023-01-05T15:24:22.565Z,11.33
2023-01-05T15:27:05.910Z,9.73
2023-01-05T15:30:04.905Z,3.37
2023-01-05T15:32:36.651Z,8.40
2023-01-05T15:35:19.184Z,5.63
2023-01-05T15:37:48.560Z,9.47
2023-01-05T15:40:25.386Z,7.53
2023-01-05T15:42:59.399Z,4.17
2023-01-05T15:45:30.185Z,3.67
2023-01-05T15:48:00.488Z,5.67
2023-01-05T15:50:34.149Z,9.30
2023-01-05T15:53:02.001Z,13.40
2023-01-05T15:55:30.219Z,4.27
2023-01-05T15:57:59.852Z,6.57
2023-01-05T16:00:30.236Z,7.20
2023-01-05T16:02:57.268Z,9.50
2023-01-05T16:05:27.019Z,6.43
2023-01-05T16:07:57.621Z,7.63
2023-01-05T16:10:44.265Z,5.13
2023-01-05T16:13:16.761Z,6.30
2023-01-05T16:15:50.282Z,8.47
2023-01-05T16:18:22.983Z,7.80
2023-01-05T16:20:52.947Z,10.13
2023-01-05T16:23:38.783Z,11.50
2023-01-05T16:26:06.390Z,8.63
2023-01-05T16:28:33.135Z,13.37
2023-01-05T16:31:00.013Z,16.23
2023-01-05T16:33:39.285Z,14.47
2023-01-05T16:36:19.138Z,12.63
2023-01-05T16:38:46.174Z,11.20
2023-01-05T16:41:19.879Z,9.83
2023-01-05T16:43:53.976Z,8.63
2023-01-05T16:46:21.374Z,9.73
2023-01-05T16:48:50.030Z,6.63
2023-01-05T16:51:18.413Z,6.30
2023-01-05T16:53:48.005Z,8.30
2023-01-05T16:56:41.782Z,6.37
2023-01-05T16:59:33.552Z,6.27
2023-01-05T17:02:00.688Z,10.40
2023-01-05T17:04:27.457Z,7.23
2023-01-05T17:06:54.297Z,7.93
2023-01-05T17:09:34.331Z,10.03
2023-01-05T17:12:00.989Z,8.13
2023-01-05T17:14:28.620Z,6.73
2023-01-05T17:16:55.470Z,6.17
2023-01-05T17:19:22.493Z,5.03
2023-01-05T17:21:59.114Z,5.93
2023-01-05T17:24:27.558Z,4.90
2023-01-05T17:26:54.652Z,7.83
2023-01-05T17:29:32.404Z,15.83
2023-01-05T17:31:59.249Z,11.87
2023-01-05T17:34:25.997Z,12.27
2023-01-05T17:36:57.261Z,12.83
2023-01-05T17:39:24.271Z,11.73
2023-01-05T17:41:51.274Z,11.60
2023-01-05T17:44:18.309Z,14.63
2023-01-05T17:46:47.458Z,18.17
2023-01-05T17:49:17.012Z,11.30
2023-01-05T17:51:44.307Z,14.53
2023-01-05T17:54:13.736Z,9.60
2023-01-05T17:56:40.558Z,12.13
2023-01-05T17:59:07.385Z,24.50
2023-01-05T18:01:34.301Z,7.57
2023-01-05T18:04:01.577Z,13.40
2023-01-05T18:06:28.347Z,12.30
2023-01-05T18:08:55.114Z,7.73
2023-01-05T18:11:21.879Z,7.50
2023-01-05T18:13:48.592Z,9.77
2023-01-05T18:16:15.593Z,6.37
2023-01-05T18:18:42.441Z,8.60
2023-01-05T18:21:09.090Z,5.13
2023-01-05T18:23:36.241Z,7.20
2023-01-05T18:26:05.539Z,13.63
2023-01-05T18:28:32.283Z,7.47
2023-01-05T18:31:00.953Z,6.80
2023-01-05T18:33:27.997Z,11.63
2023-01-05T18:38:21.990Z,13.13
2023-01-05T18:40:50.145Z,15.30
2023-01-05T18:43:17.420Z,17.73
2023-01-05T18:45:44.340Z,21.10
2023-01-05T18:48:11.301Z,21.80
2023-01-05T18:50:44.448Z,22.77
2023-01-05T18:53:11.736Z,18.27
2023-01-05T18:55:42.437Z,16.27
2023-01-05T18:58:11.185Z,25.07
2023-01-05T19:00:42.718Z,31.00
2023-01-05T19:03:10.229Z,24.17
2023-01-05T19:05:41.517Z,18.40
2023-01-05T19:08:09.571Z,18.20
2023-01-05T19:10:37.624Z,25.53
2023-01-05T19:13:05.157Z,22.63
2023-01-05T19:15:36.669Z,19.60
2023-01-05T19:18:03.835Z,18.80
2023-01-05T19:20:31.830Z,20.70
2023-01-05T19:22:59.749Z,14.37
2023-01-05T19:25:26.480Z,18.73
2023-01-05T19:27:53.231Z,17.07
2023-01-05T19:30:22.071Z,27.00
2023-01-05T19:32:48.975Z,18.50
2023-01-05T19:35:15.782Z,19.23
2023-01-05T19:37:42.591Z,15.97
2023-01-05T19:40:10.522Z,28.87
2023-01-05T19:42:37.440Z,19.20
2023-01-05T19:45:04.854Z,15.33
2023-01-05T19:47:31.697Z,10.93
2023-01-05T19:49:58.500Z,14.00
2023-01-05T19:52:29.667Z,19.20
2023-01-05T19:54:56.653Z,10.73
2023-01-05T19:57:23.690Z,11.97
2023-01-05T19:59:51.412Z,8.63
2023-01-05T20:02:18.437Z,10.97
2023-01-05T20:04:46.619Z,10.43
2023-01-05T20:07:13.416Z,16.40
2023-01-05T20:09:43.286Z,12.07
2023-01-05T20:12:14.951Z,31.20
2023-01-05T20:14:42.957Z,13.70
2023-01-05T20:17:11.354Z,10.83
2023-01-05T20:19:39.396Z,13.37
2023-01-05T20:22:13.881Z,11.17
2023-01-05T20:24:42.309Z,11.07
2023-01-05T20:27:11.881Z,13.17
2023-01-05T20:29:40.432Z,8.93
2023-01-05T20:32:10.879Z,11.30
2023-01-05T20:34:39.517Z,12.80
2023-01-05T20:37:08.266Z,10.93
2023-01-05T20:39:37.111Z,6.53
2023-01-05T20:42:08.112Z,6.77
2023-01-05T20:44:38.141Z,10.03
2023-01-05T20:47:06.629Z,7.23
2023-01-05T20:49:35.464Z,5.10
2023-01-05T20:52:02.707Z,3.40
2023-01-05T20:54:29.401Z,8.33
2023-01-05T20:56:56.109Z,9.30
2023-01-05T20:59:30.190Z,7.60
2023-01-05T21:01:58.360Z,8.90
2023-01-05T21:04:26.127Z,8.57
2023-01-05T21:06:59.290Z,8.87
2023-01-05T21:09:29.281Z,5.80
2023-01-05T21:11:56.940Z,5.67
2023-01-05T21:14:23.754Z,8.23
2023-01-05T21:16:52.638Z,7.97
2023-01-05T21:19:22.001Z,9.67
2023-01-05T21:21:54.707Z,8.77
2023-01-05T21:24:22.086Z,12.57
2023-01-05T21:26:48.967Z,11.70
2023-01-05T21:29:17.081Z,7.17
2023-01-05T21:31:43.873Z,9.37
2023-01-05T21:34:11.735Z,6.40
2023-01-05T21:36:41.652Z,7.70
2023-01-05T21:39:11.313Z,10.43
2023-01-05T21:41:56.452Z,6.60
2023-01-05T21:44:23.274Z,7.67
2023-01-05T21:46:50.441Z,5.70
2023-01-05T21:49:18.134Z,11.10
2023-01-05T21:52:03.885Z,11.30
2023-01-05T21:54:49.553Z,6.77
2023-01-05T21:57:16.583Z,6.50
2023-01-05T21:59:43.527Z,10.70
2023-01-05T22:02:11.593Z,6.63
2023-01-05T22:04:38.508Z,5.57
2023-01-05T22:07:07.319Z,5.77
2023-01-05T22:09:37.510Z,6.67
2023-01-05T22:12:08.745Z,15.97
2023-01-05T22:14:37.454Z,5.17
2023-01-05T22:17:06.076Z,3.63
2023-01-05T22:19:32.823Z,6.40
2023-01-05T22:21:59.552Z,3.87
2023-01-05T22:24:26.311Z,7.57
2023-01-05T22:26:53.091Z,5.93
2023-01-05T22:29:19.932Z,2.90
2023-01-05T22:31:47.266Z,3.50
2023-01-05T22:34:13.979Z,10.83
2023-01-05T22:36:41.064Z,5.77
2023-01-05T22:39:07.902Z,11.23
2023-01-05T22:41:36.270Z,6.97
2023-01-05T22:44:04.267Z,12.37
2023-01-05T22:46:31.625Z,8.73
2023-01-05T22:48:59.339Z,6.07
2023-01-05T22:51:36.151Z,10.50
2023-01-05T22:54:04.089Z,9.33
2023-01-05T22:56:32.517Z,10.03
2023-01-05T22:58:59.929Z,7.87
2023-01-05T23:01:38.969Z,16.60
2023-01-05T23:04:07.098Z,9.50
2023-01-05T23:06:33.923Z,9.20
2023-01-05T23:09:01.052Z,7.57
2023-01-05T23:11:38.828Z,15.73
2023-01-05T23:14:08.023Z,8.33
2023-01-05T23:16:35.674Z,7.47
2023-01-05T23:19:05.097Z,7.00
2023-01-05T23:21:32.562Z,9.17
2023-01-05T23:23:59.785Z,7.80
2023-01-05T23:26:27.491Z,6.60
2023-01-05T23:28:54.764Z,8.50
2023-01-05T23:31:24.510Z,5.33
2023-01-05T23:33:51.730Z,5.60
2023-01-05T23:36:20.328Z,9.77
2023-01-05T23:38:47.924Z,7.33
2023-01-05T23:41:16.535Z,13.93
2023-01-05T23:43:45.174Z,9.27
2023-01-05T23:46:20.098Z,7.77
2023-01-05T23:48:47.775Z,11.93
2023-01-05T23:51:16.518Z,9.00
2023-01-05T23:53:46.403Z,9.37
2023-01-05T23:56:26.177Z,11.27
2023-01-05T23:58:59.679Z,9.87
